createdAt,value
2019-05-17T00:00:07.441Z,27.80
2019-05-17T00:02:37.135Z,27.87
2019-05-17T00:05:06.905Z,28.12
2019-05-17T00:07:36.666Z,24.27
2019-05-17T00:10:07.048Z,26.48
2019-05-17T00:12:36.850Z,25.10
2019-05-17T00:15:06.952Z,25.72
2019-05-17T00:17:34.309Z,25.90
2019-05-17T00:20:02.793Z,26.77
2019-05-17T00:22:30.515Z,24.18
2019-05-17T00:24:58.132Z,23.65
2019-05-17T00:27:26.513Z,23.55
2019-05-17T00:29:54.237Z,23.62
2019-05-17T00:32:21.956Z,26.02
2019-05-17T00:34:49.568Z,23.60
2019-05-17T00:37:17.527Z,28.98
2019-05-17T00:39:47.108Z,22.93
2019-05-17T00:42:14.394Z,24.20
2019-05-17T00:44:43.657Z,28.42
2019-05-17T00:47:11.244Z,20.97
2019-05-17T00:49:38.899Z,21.93
2019-05-17T00:52:07.258Z,18.92
2019-05-17T00:54:36.198Z,17.67
2019-05-17T00:57:03.843Z,16.10
2019-05-17T00:59:31.427Z,15.43
2019-05-17T01:01:59.036Z,16.17
2019-05-17T01:04:27.598Z,18.17
2019-05-17T01:06:56.275Z,19.27
2019-05-17T01:09:23.976Z,18.77
2019-05-17T01:11:51.588Z,18.70
2019-05-17T01:14:19.189Z,21.17
2019-05-17T01:16:47.493Z,26.33
2019-05-17T01:19:16.372Z,33.92
2019-05-17T01:21:44.114Z,25.75
2019-05-17T01:24:11.700Z,29.10
2019-05-17T01:26:39.313Z,31.90
2019-05-17T01:29:06.950Z,26.10
2019-05-17T01:31:34.517Z,39.13
2019-05-17T01:34:02.100Z,34.88
2019-05-17T01:36:29.718Z,52.20
2019-05-17T01:38:57.739Z,55.67
2019-05-17T01:41:26.640Z,26.60
2019-05-17T01:43:54.306Z,36.28
2019-05-17T01:46:21.920Z,47.17
2019-05-17T01:48:49.654Z,35.13
2019-05-17T01:51:17.270Z,40.43
2019-05-17T01:53:46.842Z,28.95
2019-05-17T01:56:14.192Z,47.33
2019-05-17T01:58:41.790Z,30.48
2019-05-17T02:01:09.409Z,26.45
2019-05-17T02:03:37.626Z,35.80
2019-05-17T02:06:07.501Z,30.75
2019-05-17T02:08:37.034Z,28.15
2019-05-17T02:11:06.653Z,25.62
2019-05-17T02:13:33.693Z,29.50
2019-05-17T02:16:01.314Z,29.87
2019-05-17T02:18:28.899Z,42.98
2019-05-17T02:20:57.033Z,35.75
2019-05-17T02:23:26.863Z,29.72
2019-05-17T02:25:54.341Z,22.48
2019-05-17T02:28:21.961Z,35.28
2019-05-17T02:30:52.870Z,36.73
2019-05-17T02:33:18.814Z,40.20
2019-05-17T02:35:46.695Z,38.23
2019-05-17T02:38:14.318Z,23.98
2019-05-17T02:40:43.065Z,20.70
2019-05-17T02:43:13.341Z,31.62
2019-05-17T02:45:43.259Z,29.87
2019-05-17T02:48:09.697Z,21.52
2019-05-17T02:50:37.286Z,21.87
2019-05-17T02:53:05.051Z,25.23
2019-05-17T02:55:32.686Z,25.62
2019-05-17T02:58:03.078Z,24.72
2019-05-17T03:00:33.305Z,25.62
2019-05-17T03:02:58.799Z,24.45
2019-05-17T03:05:26.405Z,19.77
2019-05-17T03:07:54.002Z,17.75
2019-05-17T03:10:25.300Z,20.92
2019-05-17T03:12:53.045Z,25.17
2019-05-17T03:15:23.114Z,29.60
2019-05-17T03:17:49.351Z,19.25
2019-05-17T03:20:17.258Z,20.85
2019-05-17T03:22:44.869Z,26.60
2019-05-17T03:25:13.642Z,19.30
2019-05-17T03:27:42.856Z,16.97
2019-05-17T03:30:16.772Z,26.65
2019-05-17T03:32:46.445Z,19.50
2019-05-17T03:35:15.583Z,18.92
2019-05-17T03:37:38.545Z,23.27
2019-05-17T03:40:23.316Z,17.25
2019-05-17T03:42:35.391Z,17.87
2019-05-17T03:45:04.053Z,16.85
2019-05-17T03:47:33.490Z,21.30
2019-05-17T03:50:03.216Z,21.87
2019-05-17T03:52:33.104Z,18.92
2019-05-17T03:54:59.702Z,22.07
2019-05-17T03:57:27.319Z,20.27
2019-05-17T03:59:55.057Z,29.87
2019-05-17T04:02:23.213Z,18.55
2019-05-17T04:04:52.954Z,22.13
2019-05-17T04:07:23.373Z,22.17
2019-05-17T04:09:52.967Z,18.07
2019-05-17T04:12:18.620Z,17.15
2019-05-17T04:14:46.204Z,17.62
2019-05-17T04:17:13.821Z,17.37
2019-05-17T04:19:42.555Z,17.73
2019-05-17T04:22:13.431Z,18.60
2019-05-17T04:24:39.549Z,19.32
2019-05-17T04:27:07.140Z,20.12
2019-05-17T04:29:34.757Z,19.57
2019-05-17T04:32:03.977Z,17.92
2019-05-17T04:34:33.528Z,14.60
2019-05-17T04:37:04.003Z,15.35
2019-05-17T04:39:32.584Z,13.08
2019-05-17T04:42:03.378Z,13.53
2019-05-17T04:44:32.047Z,14.23
2019-05-17T04:46:58.474Z,15.93
2019-05-17T04:49:26.100Z,15.95
2019-05-17T04:51:53.686Z,16.23
2019-05-17T04:54:22.702Z,15.58
2019-05-17T04:56:53.055Z,17.62
2019-05-17T04:59:23.965Z,16.10
2019-05-17T05:01:49.243Z,16.82
2019-05-17T05:04:16.858Z,18.75
2019-05-17T05:06:44.517Z,16.62
2019-05-17T05:09:12.889Z,16.73
2019-05-17T05:11:53.465Z,24.27
2019-05-17T05:14:12.570Z,24.18
2019-05-17T05:16:39.211Z,20.70
2019-05-17T05:19:06.836Z,26.95
2019-05-17T05:21:34.425Z,24.40
2019-05-17T05:24:02.579Z,26.45
2019-05-17T05:26:31.781Z,25.05
2019-05-17T05:29:01.980Z,28.87
2019-05-17T05:31:28.865Z,27.02
2019-05-17T05:33:56.629Z,27.27
2019-05-17T05:36:24.222Z,27.75
2019-05-17T05:38:51.994Z,30.50
2019-05-17T05:41:22.581Z,33.78
2019-05-17T05:43:52.455Z,33.63
2019-05-17T05:46:19.488Z,32.65
2019-05-17T05:48:48.061Z,36.17
2019-05-17T05:51:17.755Z,37.65
2019-05-17T05:53:53.741Z,36.77
2019-05-17T05:56:29.184Z,35.50
2019-05-17T05:58:56.414Z,37.30
2019-05-17T06:01:24.137Z,38.17
2019-05-17T06:03:52.063Z,38.50
2019-05-17T06:06:21.533Z,38.65
2019-05-17T06:08:49.101Z,35.78
2019-05-17T06:11:16.921Z,33.28
2019-05-17T06:13:44.509Z,33.18
2019-05-17T06:16:12.274Z,37.60
2019-05-17T06:18:42.319Z,37.88
2019-05-17T06:21:09.252Z,36.68
2019-05-17T06:23:36.867Z,33.75
2019-05-17T06:26:04.704Z,35.50
2019-05-17T06:28:32.308Z,30.82
2019-05-17T06:31:02.655Z,34.13
2019-05-17T06:33:33.087Z,36.30
2019-05-17T06:36:02.355Z,33.90
2019-05-17T06:38:28.874Z,32.33
2019-05-17T06:40:56.641Z,34.30
2019-05-17T06:43:24.229Z,33.08
2019-05-17T06:45:52.214Z,32.98
2019-05-17T06:48:22.316Z,32.13
2019-05-17T06:50:49.205Z,31.80
2019-05-17T06:53:17.072Z,30.32
2019-05-17T06:55:44.694Z,31.37
2019-05-17T06:58:12.343Z,33.45
2019-05-17T07:00:40.410Z,28.17
2019-05-17T07:03:09.602Z,33.28
2019-05-17T07:05:37.329Z,29.90
2019-05-17T07:08:04.922Z,28.92
2019-05-17T07:10:32.545Z,28.35
2019-05-17T07:13:01.980Z,27.37
2019-05-17T07:15:43.330Z,28.02
2019-05-17T07:17:59.947Z,27.50
2019-05-17T07:20:29.807Z,29.15
2019-05-17T07:22:56.958Z,27.10
2019-05-17T07:25:24.859Z,25.80
2019-05-17T07:27:52.592Z,26.10
2019-05-17T07:30:20.231Z,26.10
2019-05-17T07:32:49.760Z,25.37
2019-05-17T07:35:19.609Z,25.23
2019-05-17T07:37:46.446Z,25.90
2019-05-17T07:40:15.293Z,25.75
2019-05-17T07:42:42.909Z,24.40
2019-05-17T07:45:10.678Z,24.10
2019-05-17T07:47:40.444Z,25.70
2019-05-17T07:50:10.818Z,26.68
2019-05-17T07:52:39.830Z,25.90
2019-05-17T07:55:06.962Z,23.57
2019-05-17T07:57:34.586Z,23.60
2019-05-17T08:00:03.421Z,25.80
2019-05-17T08:02:31.049Z,25.00
2019-05-17T08:05:00.423Z,27.40
2019-05-17T08:07:30.016Z,22.75
2019-05-17T08:09:59.917Z,24.87
2019-05-17T08:12:27.028Z,21.35
2019-05-17T08:14:54.631Z,29.10
2019-05-17T08:17:22.556Z,25.57
2019-05-17T08:19:50.141Z,23.42
2019-05-17T08:22:20.003Z,24.25
2019-05-17T08:24:49.230Z,24.32
2019-05-17T08:27:16.708Z,22.90
2019-05-17T08:29:44.436Z,20.30
2019-05-17T08:32:12.059Z,24.57
2019-05-17T08:34:40.088Z,20.23
2019-05-17T08:37:09.492Z,20.60
2019-05-17T08:39:39.803Z,19.37
2019-05-17T08:42:06.433Z,18.20
2019-05-17T08:44:34.339Z,22.17
2019-05-17T08:47:01.952Z,18.80
2019-05-17T08:49:29.639Z,18.82
2019-05-17T08:51:59.348Z,21.75
2019-05-17T08:54:26.816Z,19.85
2019-05-17T08:56:54.434Z,18.60
2019-05-17T08:59:22.024Z,19.73
2019-05-17T09:01:50.560Z,18.52
2019-05-17T09:04:20.117Z,21.07
2019-05-17T09:06:47.789Z,18.42
2019-05-17T09:09:15.376Z,19.40
2019-05-17T09:11:43.129Z,16.02
2019-05-17T09:14:10.721Z,17.67
2019-05-17T09:16:40.083Z,18.32
2019-05-17T09:19:09.930Z,18.52
2019-05-17T09:21:39.570Z,16.30
2019-05-17T09:24:06.590Z,17.90
2019-05-17T09:26:34.208Z,18.00
2019-05-17T09:29:02.066Z,19.05
2019-05-17T09:31:29.971Z,17.27
2019-05-17T09:33:57.578Z,16.65
2019-05-17T09:36:25.198Z,16.90
2019-05-17T09:38:52.788Z,14.25
2019-05-17T09:41:20.416Z,15.68
2019-05-17T09:43:49.669Z,17.23
2019-05-17T09:46:19.670Z,15.98
2019-05-17T09:48:47.243Z,12.05
2019-05-17T09:51:16.910Z,16.40
2019-05-17T09:53:44.507Z,16.07
2019-05-17T09:56:12.126Z,15.32
2019-05-17T09:58:39.833Z,14.10
2019-05-17T10:01:09.453Z,13.40
2019-05-17T10:03:37.080Z,14.55
2019-05-17T10:06:04.989Z,14.98
2019-05-17T10:08:32.889Z,13.35
2019-05-17T10:11:08.620Z,11.60
2019-05-17T10:13:29.740Z,11.38
2019-05-17T10:15:57.337Z,12.20
2019-05-17T10:18:24.959Z,10.82
2019-05-17T10:20:52.549Z,11.12
2019-05-17T10:23:20.447Z,11.75
2019-05-17T10:25:48.326Z,8.98
2019-05-17T10:28:16.221Z,12.33
2019-05-17T10:30:44.128Z,11.12
2019-05-17T10:33:11.737Z,10.45
2019-05-17T10:35:40.607Z,12.40
2019-05-17T10:38:10.236Z,9.68
2019-05-17T10:40:40.537Z,11.85
2019-05-17T10:43:09.848Z,8.20
2019-05-17T10:45:36.757Z,10.58
2019-05-17T10:48:04.373Z,8.15
2019-05-17T10:50:31.960Z,7.12
2019-05-17T10:53:00.433Z,9.10
2019-05-17T10:55:30.162Z,12.13
2019-05-17T10:57:57.439Z,10.65
2019-05-17T11:00:25.402Z,10.15
2019-05-17T11:02:53.303Z,8.85
2019-05-17T11:05:20.893Z,8.75
2019-05-17T11:07:50.392Z,7.58
2019-05-17T11:10:19.471Z,8.08
2019-05-17T11:12:47.158Z,8.00
2019-05-17T11:15:14.745Z,7.42
2019-05-17T11:17:42.360Z,8.55
2019-05-17T11:20:10.399Z,8.88
2019-05-17T11:22:38.020Z,8.35
2019-05-17T11:25:06.264Z,8.05
2019-05-17T11:27:34.626Z,12.25
2019-05-17T11:30:02.226Z,8.75
2019-05-17T11:32:29.842Z,11.78
2019-05-17T11:34:57.706Z,9.75
2019-05-17T11:37:25.295Z,9.45
2019-05-17T11:39:52.910Z,10.30
2019-05-17T11:42:20.498Z,11.43
2019-05-17T11:44:48.597Z,13.10
2019-05-17T11:47:16.190Z,11.38
2019-05-17T11:49:43.967Z,10.43
2019-05-17T11:52:11.556Z,12.40
2019-05-17T11:54:39.318Z,12.20
2019-05-17T11:57:06.904Z,8.40
2019-05-17T11:59:34.805Z,10.82
2019-05-17T12:02:02.753Z,9.60
2019-05-17T12:04:30.374Z,7.90
2019-05-17T12:06:57.967Z,9.60
2019-05-17T12:09:36.869Z,7.83
2019-05-17T12:11:55.106Z,9.40
2019-05-17T12:14:22.718Z,8.30
2019-05-17T12:16:50.624Z,4.55
2019-05-17T12:19:18.252Z,5.35
2019-05-17T12:21:45.837Z,4.50
2019-05-17T12:24:13.460Z,4.22
2019-05-17T12:26:41.329Z,6.17
2019-05-17T12:29:09.261Z,4.10
2019-05-17T12:31:36.994Z,4.15
2019-05-17T12:34:04.761Z,4.25
2019-05-17T12:36:32.486Z,4.30
2019-05-17T12:39:00.097Z,4.90
2019-05-17T12:41:27.685Z,5.17
2019-05-17T12:43:55.298Z,4.92
2019-05-17T12:46:23.217Z,5.33
2019-05-17T12:48:50.829Z,3.75
2019-05-17T12:51:20.077Z,6.33
2019-05-17T12:53:47.655Z,6.65
2019-05-17T12:56:15.546Z,4.67
2019-05-17T12:58:43.134Z,5.17
2019-05-17T13:01:10.755Z,5.90
2019-05-17T13:03:38.341Z,3.10
2019-05-17T13:06:06.291Z,3.30
2019-05-17T13:08:33.884Z,5.12
2019-05-17T13:11:01.518Z,4.10
2019-05-17T13:13:29.412Z,4.25
2019-05-17T13:15:57.176Z,3.85
2019-05-17T13:18:24.904Z,4.08
2019-05-17T13:20:52.849Z,4.95
2019-05-17T13:23:20.435Z,41.58
2019-05-17T13:25:48.055Z,5.42
2019-05-17T13:28:15.638Z,4.85
2019-05-17T13:30:43.396Z,5.00
2019-05-17T13:33:11.311Z,3.98
2019-05-17T13:35:39.442Z,4.62
2019-05-17T13:38:06.985Z,3.98
2019-05-17T13:40:39.666Z,5.25
2019-05-17T13:43:03.869Z,5.05
2019-05-17T13:45:31.665Z,5.00
2019-05-17T13:47:59.237Z,3.45
2019-05-17T13:50:27.174Z,4.62
2019-05-17T13:52:55.219Z,3.92
2019-05-17T13:55:22.958Z,3.37
2019-05-17T13:57:50.561Z,3.08
2019-05-17T14:00:18.186Z,3.58
2019-05-17T14:02:46.099Z,3.08
2019-05-17T14:05:13.740Z,5.00
2019-05-17T14:07:41.609Z,3.52
2019-05-17T14:10:24.558Z,4.40
2019-05-17T14:12:38.752Z,4.53
2019-05-17T14:15:07.147Z,4.08
2019-05-17T14:17:34.747Z,3.47
2019-05-17T14:20:02.634Z,8.75
2019-05-17T14:22:31.369Z,5.22
2019-05-17T14:24:58.966Z,3.17
2019-05-17T14:27:26.606Z,5.60
2019-05-17T14:29:54.489Z,3.75
2019-05-17T14:32:22.225Z,4.22
2019-05-17T14:34:49.813Z,2.77
2019-05-17T14:37:17.589Z,3.33
2019-05-17T14:39:50.763Z,4.53
2019-05-17T14:42:19.576Z,3.20
2019-05-17T14:44:47.312Z,7.05
2019-05-17T14:47:14.925Z,3.20
2019-05-17T14:49:42.519Z,2.55
2019-05-17T14:52:10.268Z,2.60
2019-05-17T14:54:38.170Z,2.42
2019-05-17T14:57:06.643Z,2.47
2019-05-17T14:59:34.669Z,2.90
2019-05-17T15:02:02.647Z,4.70
2019-05-17T15:04:30.259Z,2.55
2019-05-17T15:06:57.919Z,2.75
2019-05-17T15:09:25.610Z,6.70
2019-05-17T15:11:53.350Z,2.40
2019-05-17T15:14:21.354Z,2.95
2019-05-17T15:16:49.118Z,2.10
2019-05-17T15:19:16.697Z,2.30
2019-05-17T15:21:44.506Z,2.10
2019-05-17T15:24:12.163Z,2.10
2019-05-17T15:26:43.013Z,2.40
2019-05-17T15:29:10.600Z,2.60
2019-05-17T15:31:38.217Z,3.33
2019-05-17T15:34:05.893Z,3.47
2019-05-17T15:36:33.512Z,5.60
2019-05-17T15:39:02.222Z,2.40
2019-05-17T15:41:29.871Z,3.83
2019-05-17T15:43:57.598Z,2.65
2019-05-17T15:46:25.222Z,5.35
2019-05-17T15:48:52.801Z,1.90
2019-05-17T15:51:20.444Z,3.90
2019-05-17T15:53:48.031Z,2.55
2019-05-17T15:56:15.680Z,4.22
2019-05-17T15:58:43.273Z,2.65
2019-05-17T16:01:10.874Z,2.67
2019-05-17T16:03:38.505Z,4.70
2019-05-17T16:06:06.400Z,4.08
2019-05-17T16:08:34.013Z,1.80
2019-05-17T16:11:01.749Z,1.65
2019-05-17T16:13:29.654Z,2.05
2019-05-17T16:15:57.248Z,2.42
2019-05-17T16:18:24.855Z,2.80
2019-05-17T16:20:52.444Z,3.77
2019-05-17T16:23:20.066Z,2.83
2019-05-17T16:25:47.656Z,4.92
2019-05-17T16:28:15.274Z,2.62
2019-05-17T16:30:42.869Z,2.58
2019-05-17T16:33:10.495Z,2.35
2019-05-17T16:35:38.080Z,1.47
2019-05-17T16:38:05.689Z,2.85
2019-05-17T16:40:33.285Z,1.87
2019-05-17T16:43:16.762Z,1.42
2019-05-17T16:45:30.141Z,1.92
2019-05-17T16:47:57.905Z,1.82
2019-05-17T16:50:26.066Z,1.57
2019-05-17T16:53:05.497Z,1.40
2019-05-17T16:55:25.940Z,3.85
2019-05-17T16:57:52.180Z,3.50
2019-05-17T17:00:32.858Z,1.77
2019-05-17T17:03:02.881Z,1.95
2019-05-17T17:05:30.437Z,2.60
2019-05-17T17:07:58.126Z,2.60
2019-05-17T17:10:25.727Z,5.97
2019-05-17T17:12:53.594Z,3.15
2019-05-17T17:15:21.204Z,1.80
2019-05-17T17:17:48.802Z,2.98
2019-05-17T17:20:16.561Z,1.55
2019-05-17T17:22:44.180Z,3.08
2019-05-17T17:25:11.948Z,1.85
2019-05-17T17:27:39.527Z,1.95
2019-05-17T17:30:11.883Z,2.90
2019-05-17T17:32:39.834Z,1.72
2019-05-17T17:35:07.869Z,1.45
2019-05-17T17:37:36.090Z,2.98
2019-05-17T17:40:07.692Z,3.72
2019-05-17T17:42:37.785Z,3.12
2019-05-17T17:45:07.447Z,1.80
2019-05-17T17:47:35.632Z,1.80
2019-05-17T17:50:06.345Z,3.12
2019-05-17T17:52:35.030Z,2.80
2019-05-17T17:55:02.923Z,1.67
2019-05-17T17:57:30.790Z,2.08
2019-05-17T17:59:58.426Z,5.12
2019-05-17T18:02:26.446Z,1.70
2019-05-17T18:04:54.061Z,2.35
2019-05-17T18:07:21.657Z,5.00
2019-05-17T18:09:49.434Z,1.50
2019-05-17T18:12:17.019Z,1.62
2019-05-17T18:14:44.654Z,1.85
2019-05-17T18:17:13.790Z,1.62
2019-05-17T18:19:41.436Z,3.60
2019-05-17T18:22:09.001Z,9.73
2019-05-17T18:24:36.980Z,3.92
2019-05-17T18:27:04.575Z,3.47
2019-05-17T18:29:32.184Z,2.10
2019-05-17T18:32:00.087Z,3.85
2019-05-17T18:34:27.706Z,1.90
2019-05-17T18:36:55.295Z,5.17
2019-05-17T18:39:23.236Z,1.92
2019-05-17T18:41:50.817Z,1.85
2019-05-17T18:44:27.275Z,1.75
2019-05-17T18:46:47.950Z,4.78
2019-05-17T18:49:15.853Z,1.52
2019-05-17T18:51:43.745Z,1.65
2019-05-17T18:54:11.334Z,2.05
2019-05-17T18:56:39.234Z,2.50
2019-05-17T18:59:07.098Z,2.62
2019-05-17T19:01:35.004Z,5.03
2019-05-17T19:04:02.729Z,2.92
2019-05-17T19:06:30.348Z,2.50
2019-05-17T19:08:58.012Z,1.67
2019-05-17T19:11:25.625Z,2.77
2019-05-17T19:13:55.647Z,4.28
2019-05-17T19:16:24.618Z,3.85
2019-05-17T19:18:52.496Z,1.90
2019-05-17T19:21:20.272Z,2.30
2019-05-17T19:23:47.911Z,2.95
2019-05-17T19:26:15.497Z,1.57
2019-05-17T19:28:43.425Z,4.40
2019-05-17T19:31:11.779Z,2.37
2019-05-17T19:33:39.551Z,2.20
2019-05-17T19:36:07.456Z,4.22
2019-05-17T19:38:35.361Z,5.35
2019-05-17T19:41:03.306Z,2.17
2019-05-17T19:43:30.908Z,3.10
2019-05-17T19:45:58.523Z,2.62
2019-05-17T19:48:26.399Z,6.72
2019-05-17T19:50:54.297Z,2.65
2019-05-17T19:53:22.531Z,2.58
2019-05-17T19:55:50.151Z,2.75
2019-05-17T19:58:18.025Z,2.77
2019-05-17T20:00:45.963Z,6.08
2019-05-17T20:03:13.705Z,2.20
2019-05-17T20:05:41.606Z,2.50
2019-05-17T20:08:09.241Z,3.17
2019-05-17T20:10:36.978Z,2.35
2019-05-17T20:13:04.897Z,2.58
2019-05-17T20:15:34.834Z,4.87
2019-05-17T20:18:01.786Z,4.22
2019-05-17T20:20:29.335Z,3.85
2019-05-17T20:22:57.290Z,2.62
2019-05-17T20:25:25.261Z,2.62
2019-05-17T20:27:53.014Z,3.60
2019-05-17T20:30:26.077Z,2.83
2019-05-17T20:32:56.210Z,2.55
2019-05-17T20:35:25.133Z,2.80
2019-05-17T20:37:53.900Z,2.20
2019-05-17T20:40:22.744Z,2.10
2019-05-17T20:42:52.466Z,4.90
2019-05-17T20:45:32.531Z,3.22
2019-05-17T20:47:52.283Z,5.30
2019-05-17T20:50:21.199Z,5.95
2019-05-17T20:52:49.171Z,5.75
2019-05-17T20:55:17.068Z,5.30
2019-05-17T20:57:46.099Z,3.37
2019-05-17T21:00:25.289Z,6.37
2019-05-17T21:02:53.845Z,4.10
2019-05-17T21:05:22.139Z,4.47
2019-05-17T21:07:50.389Z,4.47
2019-05-17T21:10:19.654Z,3.62
2019-05-17T21:12:47.651Z,6.00
2019-05-17T21:15:15.613Z,4.80
2019-05-17T21:17:44.117Z,3.90
2019-05-17T21:20:12.071Z,5.37
2019-05-17T21:22:40.335Z,4.17
2019-05-17T21:25:09.409Z,6.03
2019-05-17T21:27:37.386Z,5.90
2019-05-17T21:30:07.187Z,3.55
2019-05-17T21:32:35.495Z,3.30
2019-05-17T21:35:04.332Z,4.33
2019-05-17T21:37:32.906Z,3.12
2019-05-17T21:40:01.219Z,4.10
2019-05-17T21:42:30.270Z,3.92
2019-05-17T21:44:58.260Z,6.97
2019-05-17T21:47:28.123Z,3.02
2019-05-17T21:49:56.392Z,5.55
2019-05-17T21:52:24.321Z,3.37
2019-05-17T21:54:52.220Z,3.27
2019-05-17T21:57:21.175Z,3.12
2019-05-17T21:59:49.066Z,3.62
2019-05-17T22:02:17.409Z,2.98
2019-05-17T22:04:45.285Z,2.95
2019-05-17T22:07:15.693Z,2.60
2019-05-17T22:09:43.612Z,3.40
2019-05-17T22:12:11.602Z,3.02
2019-05-17T22:14:39.864Z,3.25
2019-05-17T22:17:08.248Z,2.87
2019-05-17T22:19:36.148Z,3.83
2019-05-17T22:22:04.140Z,2.72
2019-05-17T22:24:32.465Z,4.30
2019-05-17T22:27:00.696Z,3.77
2019-05-17T22:29:28.998Z,4.08
2019-05-17T22:31:57.960Z,2.55
2019-05-17T22:34:25.501Z,6.50
2019-05-17T22:36:53.091Z,3.87
2019-05-17T22:39:20.727Z,4.60
2019-05-17T22:41:48.608Z,3.00
2019-05-17T22:44:16.224Z,3.15
2019-05-17T22:46:43.813Z,4.12
2019-05-17T22:49:11.437Z,3.58
2019-05-17T22:51:39.026Z,4.35
2019-05-17T22:54:06.636Z,4.10
2019-05-17T22:56:34.225Z,3.33
2019-05-17T22:59:01.838Z,9.75
2019-05-17T23:01:29.440Z,2.98
2019-05-17T23:03:57.192Z,5.12
2019-05-17T23:06:25.070Z,3.47
2019-05-17T23:08:52.690Z,6.05
2019-05-17T23:11:22.566Z,3.15
2019-05-17T23:13:50.469Z,3.52
2019-05-17T23:16:18.345Z,3.52
2019-05-17T23:18:45.961Z,4.47
2019-05-17T23:21:13.840Z,3.55
2019-05-17T23:23:41.455Z,5.03
2019-05-17T23:26:09.037Z,2.80
2019-05-17T23:28:36.649Z,4.85
2019-05-17T23:31:04.324Z,3.30
2019-05-17T23:33:31.937Z,5.70
2019-05-17T23:35:59.539Z,3.80
2019-05-17T23:38:27.150Z,4.00
2019-05-17T23:40:54.744Z,3.67
2019-05-17T23:43:22.505Z,4.42
2019-05-17T23:45:50.117Z,7.08
2019-05-17T23:48:17.742Z,3.83
2019-05-17T23:50:45.324Z,5.05
2019-05-17T23:53:13.285Z,4.65
2019-05-17T23:55:40.895Z,6.00
2019-05-17T23:58:08.493Z,4.83
